Time;durP1;ratioP1;P1;durP2;ratioP2;P2;SDS_P1;SDS_P2;PMS_P1;PMS_P2;Temp;Humidity;BMP_temperature;BMP_pressure;BME280_temperature;BME280_humidity;BME280_pressure;Samples;Min_cycle;Max_cycle;Signal;HPM_P1;HPM_P2
2023/01/08 00:03:17;;;;;;;14.52;8.13;;;3.20;99.90;;;;;;21266552;27;20042;-79
2023/01/08 00:13:19;;;;;;;23.52;10.23;;;3.20;99.90;;;;;;21252546;27;20398;-79
2023/01/08 00:23:20;;;;;;;19.73;10.52;;;3.10;99.90;;;;;;21216664;27;20031;-79
2023/01/08 00:33:20;;;;;;;16.80;8.40;;;3.00;99.90;;;;;;21248001;27;20042;-79
2023/01/08 00:43:22;;;;;;;19.23;10.35;;;2.90;99.90;;;;;;21265477;27;20084;-79
2023/01/08 00:53:23;;;;;;;20.77;10.02;;;3.00;99.90;;;;;;21262960;27;20023;-79
2023/01/08 01:03:24;;;;;;;20.98;9.90;;;2.90;99.90;;;;;;21242280;27;20065;-79
2023/01/08 01:13:25;;;;;;;21.98;10.95;;;3.00;99.90;;;;;;21253396;27;20050;-79
2023/01/08 01:23:26;;;;;;;25.90;11.60;;;2.90;99.90;;;;;;21249660;27;20475;-79
2023/01/08 01:33:28;;;;;;;24.83;10.38;;;2.80;99.90;;;;;;21244409;27;20501;-79
2023/01/08 01:43:41;;;;;;;21.98;10.00;;;2.70;99.90;;;;;;21254295;27;20172;-79
2023/01/08 01:53:42;;;;;;;22.58;11.80;;;2.80;99.90;;;;;;21260304;28;20122;-77
2023/01/08 02:03:43;;;;;;;25.77;12.27;;;2.90;99.90;;;;;;21239966;28;20039;-78
2023/01/08 02:13:54;;;;;;;25.88;12.02;;;2.90;99.90;;;;;;21243713;28;20047;-79
2023/01/08 02:24:12;;;;;;;26.42;13.18;;;2.80;99.90;;;;;;21260398;28;20121;-79
2023/01/08 02:34:13;;;;;;;27.98;12.93;;;2.90;99.90;;;;;;21269467;27;20043;-78
2023/01/08 02:44:20;;;;;;;22.33;11.45;;;2.90;99.90;;;;;;21273025;27;20039;-79
2023/01/08 02:54:30;;;;;;;22.13;10.43;;;3.00;99.90;;;;;;21253220;27;20431;-79
2023/01/08 03:04:39;;;;;;;30.85;11.52;;;2.90;99.90;;;;;;21268104;27;20064;-79
2023/01/08 03:14:53;;;;;;;22.70;11.60;;;3.00;99.90;;;;;;21266260;27;20051;-79
2023/01/08 03:24:57;;;;;;;22.55;11.43;;;3.00;99.90;;;;;;21250383;27;20397;-79
2023/01/08 03:35:00;;;;;;;22.77;11.35;;;2.90;99.90;;;;;;21269903;27;20115;-78
2023/01/08 03:45:01;;;;;;;23.58;11.38;;;2.80;99.90;;;;;;21265815;27;20070;-79
2023/01/08 03:55:03;;;;;;;22.10;10.82;;;2.70;99.90;;;;;;21266939;27;20031;-79
2023/01/08 04:05:05;;;;;;;17.65;9.38;;;2.80;99.90;;;;;;21250677;27;20043;-79
2023/01/08 04:15:06;;;;;;;22.40;10.40;;;2.90;99.90;;;;;;21260148;27;20049;-78
2023/01/08 04:25:07;;;;;;;20.10;11.00;;;2.90;99.90;;;;;;21252624;27;20039;-79
2023/01/08 04:35:08;;;;;;;24.25;11.63;;;2.90;99.90;;;;;;21243926;27;20043;-79
2023/01/08 04:45:11;;;;;;;26.00;12.32;;;2.80;99.90;;;;;;21232990;27;20043;-79
2023/01/08 04:55:14;;;;;;;29.02;13.02;;;3.00;99.90;;;;;;21241252;27;20035;-79
2023/01/08 05:05:15;;;;;;;27.25;13.13;;;3.00;99.90;;;;;;21253662;27;20031;-79
2023/01/08 05:15:16;;;;;;;29.95;12.77;;;3.10;99.90;;;;;;21243749;27;20435;-79
2023/01/08 05:25:19;;;;;;;25.80;11.60;;;3.20;99.90;;;;;;21248935;28;20073;-78
2023/01/08 05:35:21;;;;;;;26.02;12.63;;;3.40;99.90;;;;;;21244832;28;20232;-78
2023/01/08 05:45:21;;;;;;;30.92;14.52;;;3.30;99.90;;;;;;21258573;27;20039;-77
2023/01/08 05:55:22;;;;;;;27.52;12.48;;;3.20;99.90;;;;;;21258980;27;20084;-78
2023/01/08 06:05:24;;;;;;;26.05;11.73;;;3.30;99.90;;;;;;21274027;27;20071;-78
2023/01/08 06:15:25;;;;;;;25.95;12.93;;;3.40;99.90;;;;;;21276955;27;20047;-78
2023/01/08 06:25:27;;;;;;;24.42;11.90;;;3.20;99.90;;;;;;21259297;27;20042;-78
2023/01/08 06:35:28;;;;;;;25.63;12.48;;;3.20;99.90;;;;;;21266095;27;20043;-78
2023/01/08 06:45:29;;;;;;;23.65;11.18;;;3.20;99.90;;;;;;21250081;27;20050;-78
2023/01/08 06:55:29;;;;;;;31.48;13.50;;;3.30;99.90;;;;;;21266904;27;20043;-78
2023/01/08 07:05:34;;;;;;;27.35;12.60;;;3.30;99.90;;;;;;21262015;27;20043;-78
2023/01/08 07:15:36;;;;;;;27.27;13.05;;;3.40;99.90;;;;;;21267091;27;20039;-78
2023/01/08 07:25:37;;;;;;;24.98;12.55;;;3.50;99.90;;;;;;21273000;27;20039;-78
2023/01/08 07:35:39;;;;;;;28.13;12.52;;;3.50;99.90;;;;;;21266853;27;20505;-78
2023/01/08 07:45:40;;;;;;;29.73;14.38;;;3.50;99.90;;;;;;21248733;27;20037;-79
2023/01/08 07:55:41;;;;;;;20.98;10.60;;;3.90;99.90;;;;;;21281800;27;20031;-81
2023/01/08 08:05:42;;;;;;;;;;;4.80;99.90;;;;;;21255894;27;20088;-81
2023/01/08 08:15:43;;;;;;;30.67;14.27;;;4.50;99.90;;;;;;21251864;27;19916;-80
2023/01/08 08:25:44;;;;;;;51.13;27.52;;;4.30;99.90;;;;;;21244044;27;20051;-80
2023/01/08 08:35:49;;;;;;;32.28;18.33;;;4.40;99.90;;;;;;21276082;27;20031;-79
2023/01/08 08:45:52;;;;;;;28.92;14.40;;;4.30;99.90;;;;;;21259361;27;20039;-79
2023/01/08 08:55:54;;;;;;;26.33;13.60;;;4.20;99.90;;;;;;21280957;27;20039;-79
2023/01/08 09:05:56;;;;;;;24.70;12.65;;;4.20;99.90;;;;;;21271308;27;20043;-80
2023/01/08 09:15:59;;;;;;;28.58;13.65;;;4.40;99.90;;;;;;21257711;27;20095;-79
2023/01/08 09:26:01;;;;;;;34.92;18.13;;;4.40;99.90;;;;;;21240729;27;20031;-79
2023/01/08 09:36:02;;;;;;;28.40;14.30;;;4.50;99.90;;;;;;21258626;27;20038;-79
2023/01/08 09:46:08;;;;;;;27.50;13.30;;;4.60;99.90;;;;;;21278213;27;20538;-78
2023/01/08 09:56:16;;;;;;;64.70;26.27;;;4.60;99.90;;;;;;21278010;27;20035;-78
2023/01/08 10:06:17;;;;;;;31.98;15.95;;;4.60;99.90;;;;;;21263828;27;20035;-78
2023/01/08 10:16:29;;;;;;;25.85;13.13;;;4.80;99.90;;;;;;21256797;27;20042;-79
2023/01/08 10:26:36;;;;;;;24.33;12.65;;;4.80;99.90;;;;;;21266868;27;20171;-78
2023/01/08 10:36:42;;;;;;;23.05;12.88;;;4.90;99.90;;;;;;21273199;27;20050;-78
2023/01/08 10:46:52;;;;;;;26.60;14.65;;;4.90;99.90;;;;;;21267691;27;20035;-78
2023/01/08 10:56:53;;;;;;;27.40;14.15;;;4.90;99.90;;;;;;21264904;27;20521;-79
2023/01/08 11:06:58;;;;;;;33.55;18.50;;;5.00;99.90;;;;;;21244858;27;20327;-78
2023/01/08 11:17:01;;;;;;;26.83;14.65;;;5.10;99.90;;;;;;21245768;27;20047;-78
2023/01/08 11:27:08;;;;;;;31.52;15.38;;;5.10;99.90;;;;;;21266089;27;20094;-79
2023/01/08 11:37:26;;;;;;;35.67;19.00;;;5.10;99.90;;;;;;21275202;27;20382;-78
2023/01/08 11:47:47;;;;;;;26.10;13.43;;;5.20;99.90;;;;;;21247629;27;20045;-78
2023/01/08 11:58:23;;;;;;;42.10;19.17;;;5.40;99.90;;;;;;21262575;27;20126;-78
2023/01/08 12:08:36;;;;;;;21.50;12.63;;;5.50;99.90;;;;;;21163914;27;20044;-78
2023/01/08 12:18:57;;;;;;;25.85;13.80;;;5.70;99.90;;;;;;21076362;28;20043;-78
2023/01/08 12:29:42;;;;;;;34.27;17.40;;;5.70;99.90;;;;;;20984381;28;20446;-77
2023/01/08 12:39:59;;;;;;;24.50;13.55;;;5.70;99.90;;;;;;20881313;28;20059;-77
2023/01/08 12:50:20;;;;;;;17.45;10.50;;;5.90;99.90;;;;;;20902419;28;20036;-77
2023/01/08 13:00:44;;;;;;;19.50;11.30;;;6.00;99.90;;;;;;20879394;28;20044;-79
2023/01/08 13:10:52;;;;;;;24.27;13.25;;;6.00;99.90;;;;;;20875760;28;20397;-78
2023/01/08 13:20:56;;;;;;;22.88;12.93;;;5.90;99.90;;;;;;20865009;28;20025;-78
2023/01/08 13:31:25;;;;;;;22.25;12.98;;;6.10;99.90;;;;;;20861877;28;20438;-78
2023/01/08 13:41:33;;;;;;;20.40;11.75;;;6.20;99.90;;;;;;20874115;28;20438;-78
2023/01/08 13:51:41;;;;;;;20.00;11.68;;;6.20;99.90;;;;;;20822687;28;20080;-77
2023/01/08 14:01:52;;;;;;;23.80;13.07;;;6.20;99.90;;;;;;20790851;28;20029;-77
2023/01/08 14:11:56;;;;;;;22.07;12.47;;;6.20;99.90;;;;;;20834310;28;20037;-78
2023/01/08 14:22:02;;;;;;;27.17;13.52;;;6.30;99.90;;;;;;20826663;28;20029;-78
2023/01/08 14:32:19;;;;;;;28.58;14.45;;;6.30;99.90;;;;;;20829456;28;20520;-78
2023/01/08 14:42:42;;;;;;;32.90;18.10;;;6.30;99.90;;;;;;20827296;28;20033;-77
2023/01/08 14:52:44;;;;;;;32.30;17.50;;;6.20;99.90;;;;;;20808449;28;20057;-78
2023/01/08 15:02:47;;;;;;;36.55;18.70;;;6.20;99.90;;;;;;20830147;28;20500;-77
2023/01/08 15:12:55;;;;;;;29.52;15.75;;;6.20;99.90;;;;;;20757733;28;20037;-79
2023/01/08 15:22:56;;;;;;;25.88;14.07;;;6.20;99.90;;;;;;20805817;28;20440;-79
2023/01/08 15:33:17;;;;;;;;;;;6.30;99.90;;;;;;20841105;28;20032;-78
2023/01/08 15:43:19;;;;;;;25.30;13.63;;;6.30;99.90;;;;;;20806783;28;19913;-78
2023/01/08 15:53:23;;;;;;;23.25;13.07;;;6.30;99.90;;;;;;20806903;28;20084;-79
2023/01/08 16:03:24;;;;;;;23.13;13.45;;;6.40;99.90;;;;;;20789604;28;20049;-79
2023/01/08 16:13:25;;;;;;;;;;;6.30;99.90;;;;;;20846096;28;20037;-78
2023/01/08 16:23:26;;;;;;;21.93;11.87;;;6.30;99.90;;;;;;20834843;28;19913;-77
2023/01/08 16:33:29;;;;;;;25.33;12.52;;;6.40;99.90;;;;;;20831339;28;20276;-78
2023/01/08 16:43:38;;;;;;;22.50;12.52;;;6.40;99.90;;;;;;20825433;28;20088;-78
2023/01/08 16:53:41;;;;;;;24.15;14.02;;;6.40;99.90;;;;;;20835987;28;20040;-78
2023/01/08 17:03:43;;;;;;;25.92;14.25;;;6.40;99.90;;;;;;20841398;28;20026;-78
2023/01/08 17:13:44;;;;;;;29.08;15.57;;;6.30;99.90;;;;;;20933331;28;20048;-79
2023/01/08 17:23:45;;;;;;;;;;;6.30;99.90;;;;;;20872852;28;20041;-79
2023/01/08 17:33:50;;;;;;;36.63;18.63;;;6.20;99.90;;;;;;20774200;28;19977;-77
2023/01/08 17:43:51;;;;;;;37.92;18.27;;;6.20;99.90;;;;;;20811624;28;20577;-78
2023/01/08 17:53:51;;;;;;;;;;;6.30;99.90;;;;;;20797604;28;20044;-77
2023/01/08 18:03:52;;;;;;;35.72;18.02;;;6.30;99.90;;;;;;20798929;28;19913;-77
2023/01/08 18:13:54;;;;;;;;;;;6.30;99.90;;;;;;20795690;28;20064;-77
2023/01/08 18:23:55;;;;;;;35.75;18.92;;;6.30;99.90;;;;;;20880516;28;19927;-77
2023/01/08 18:33:56;;;;;;;;;;;6.30;99.90;;;;;;20920165;28;20507;-77
2023/01/08 18:43:57;;;;;;;42.15;21.60;;;6.20;99.90;;;;;;20917716;28;19913;-78
2023/01/08 18:53:57;;;;;;;;;;;6.20;99.90;;;;;;20836175;28;20477;-78
2023/01/08 19:03:58;;;;;;;49.58;24.58;;;6.30;99.90;;;;;;20839832;28;19913;-78
2023/01/08 19:14:00;;;;;;;31.83;15.90;;;6.30;99.90;;;;;;20917170;28;20492;-78
2023/01/08 19:24:01;;;;;;;;;;;6.20;99.90;;;;;;20837226;28;20033;-77
2023/01/08 19:34:02;;;;;;;35.17;17.33;;;6.10;99.90;;;;;;20838545;28;20023;-78
2023/01/08 19:44:04;;;;;;;28.33;14.68;;;6.20;99.90;;;;;;20919344;28;20029;-78
2023/01/08 19:54:04;;;;;;;36.10;19.60;;;6.30;99.90;;;;;;20847442;28;20040;-79
2023/01/08 20:04:06;;;;;;;;;;;6.30;99.90;;;;;;20848523;28;20400;-79
2023/01/08 20:14:06;;;;;;;31.27;15.17;;;6.30;99.90;;;;;;20855323;28;19996;-79
2023/01/08 20:24:12;;;;;;;30.67;16.60;;;6.20;99.90;;;;;;20842920;28;20320;-79
2023/01/08 20:34:15;;;;;;;30.38;16.33;;;6.20;99.90;;;;;;20853383;28;20279;-79
2023/01/08 20:44:16;;;;;;;35.95;17.80;;;6.20;99.90;;;;;;20770698;28;20097;-77
2023/01/08 20:54:18;;;;;;;36.40;17.13;;;6.10;99.90;;;;;;20855492;28;20041;-77
2023/01/08 21:04:19;;;;;;;;;;;6.20;99.90;;;;;;20849822;28;20029;-78
2023/01/08 21:14:20;;;;;;;38.22;17.00;;;6.20;99.90;;;;;;20860176;28;19928;-78
2023/01/08 21:24:20;;;;;;;;;;;6.20;99.90;;;;;;20845278;28;20036;-77
2023/01/08 21:34:23;;;;;;;39.80;17.10;;;6.20;99.90;;;;;;20823029;28;19909;-79
2023/01/08 21:54:44;;;;;;;44.95;18.60;;;6.20;99.90;;;;;;20790399;28;20037;-78
2023/01/08 22:04:45;;;;;;;;;;;6.20;99.90;;;;;;20801590;28;20072;-79
2023/01/08 22:14:47;;;;;;;41.93;18.40;;;6.20;99.90;;;;;;20841641;28;19916;-79
2023/01/08 22:24:51;;;;;;;39.75;18.17;;;6.20;99.90;;;;;;20849753;28;20037;-79
2023/01/08 22:34:51;;;;;;;38.65;18.33;;;6.30;99.90;;;;;;20850197;28;20439;-79
2023/01/08 22:44:52;;;;;;;;;;;6.30;99.90;;;;;;20850463;28;20058;-79
2023/01/08 22:54:55;;;;;;;44.37;19.40;;;6.30;99.90;;;;;;20853595;28;19992;-79
2023/01/08 23:04:57;;;;;;;37.83;17.92;;;6.30;99.90;;;;;;20933821;28;20280;-79
2023/01/08 23:14:58;;;;;;;33.40;17.25;;;6.30;99.90;;;;;;20848637;28;20037;-80
2023/01/08 23:24:59;;;;;;;39.35;18.02;;;6.30;99.90;;;;;;20846882;28;20480;-80
2023/01/08 23:35:00;;;;;;;;;;;6.30;99.90;;;;;;20845672;28;20132;-77
2023/01/08 23:45:01;;;;;;;42.00;19.17;;;6.20;99.90;;;;;;20813543;28;19912;-78
2023/01/08 23:55:02;;;;;;;37.40;17.70;;;6.30;99.90;;;;;;20818700;28;20370;-79
